Time;durP1;ratioP1;P1;durP2;ratioP2;P2;SDS_P1;SDS_P2;PMS_P1;PMS_P2;Temp;Humidity;BMP_temperature;BMP_pressure;BME280_temperature;BME280_humidity;BME280_pressure;Samples;Min_cycle;Max_cycle;Signal;HPM_P1;HPM_P2
2022/11/28 00:01:52;;;;;;;;;;;6.60;97.40;;;;;;5001521;28;1026;-86
2022/11/28 00:04:20;;;;;;;;;;;6.40;97.10;;;;;;5001508;28;1589;-86
2022/11/28 00:06:49;;;;;;;;;;;6.40;97.40;;;;;;5009396;28;1383;-84
2022/11/28 00:09:17;;;;;;;;;;;6.40;97.30;;;;;;5023253;28;1967;-86
2022/11/28 00:11:46;;;;;;;;;;;6.50;97.20;;;;;;5009982;28;1426;-85
2022/11/28 00:14:15;;;;;;;;;;;6.40;97.50;;;;;;5018379;28;1402;-87
2022/11/28 00:16:43;;;;;;;;;;;6.50;97.30;;;;;;5008500;28;1661;-86
2022/11/28 00:19:12;;;;;;;;;;;6.40;97.00;;;;;;5016408;28;966;-88
2022/11/28 00:21:40;;;;;;;;;;;6.40;97.40;;;;;;5018932;28;1569;-86
2022/11/28 00:24:08;;;;;;;;;;;6.60;97.30;;;;;;5001779;28;1104;-88
2022/11/28 00:26:37;;;;;;;;;;;6.50;97.00;;;;;;5006674;28;1586;-87
2022/11/28 00:29:06;;;;;;;;;;;6.50;96.90;;;;;;5001025;28;1090;-88
2022/11/28 00:31:41;;;;;;;;;;;6.60;96.90;;;;;;5001737;28;1914;-88
2022/11/28 00:34:10;;;;;;;;;;;6.50;96.80;;;;;;5002066;28;950;-88
2022/11/28 00:36:37;;;;;;;;;;;6.60;96.60;;;;;;5000382;28;1710;-87
2022/11/28 00:39:05;;;;;;;;;;;6.50;96.40;;;;;;5000550;28;1177;-87
2022/11/28 00:41:34;;;;;;;;;;;6.50;96.40;;;;;;5000828;28;1382;-89
2022/11/28 00:44:01;;;;;;;;;;;6.40;96.30;;;;;;5018895;28;1013;-89
2022/11/28 00:46:29;;;;;;;;;;;6.70;96.80;;;;;;5037328;28;1186;-87
2022/11/28 00:48:58;;;;;;;;;;;6.60;96.30;;;;;;5037323;28;1711;-87
2022/11/28 00:51:27;;;;;;;;;;;6.50;96.50;;;;;;5017898;28;1997;-86
2022/11/28 00:53:56;;;;;;;;;;;6.40;96.30;;;;;;5017227;28;1364;-87
2022/11/28 00:56:24;;;;;;;;;;;6.50;96.60;;;;;;5017147;28;1367;-88
2022/11/28 00:58:52;;;;;;;;;;;6.50;96.30;;;;;;5017712;28;1677;-89
2022/11/28 01:01:22;;;;;;;;;;;6.60;96.30;;;;;;5018323;28;1736;-89
2022/11/28 01:03:51;;;;;;;;;;;6.60;96.20;;;;;;5015246;28;1665;-87
2022/11/28 01:06:24;;;;;;;;;;;6.50;96.00;;;;;;5017852;28;1557;-88
2022/11/28 01:08:52;;;;;;;;;;;6.50;96.20;;;;;;5017949;28;1105;-88
2022/11/28 01:11:20;;;;;;;;;;;6.50;96.00;;;;;;5019294;28;1875;-88
2022/11/28 01:13:48;;;;;;;;;;;6.60;95.80;;;;;;5018636;28;1025;-87
2022/11/28 01:16:16;;;;;;;;;;;6.50;95.60;;;;;;5017933;28;1379;-86
2022/11/28 01:18:44;;;;;;;;;;;6.60;95.60;;;;;;5019071;28;1002;-87
2022/11/28 01:21:11;;;;;;;;;;;6.40;95.70;;;;;;5031561;28;1403;-85
2022/11/28 01:23:40;;;;;;;;;;;6.50;95.80;;;;;;5026268;28;1009;-86
2022/11/28 01:26:09;;;;;;;;;;;6.50;95.80;;;;;;5012959;28;1366;-87
2022/11/28 01:28:36;;;;;;;;;;;6.60;95.80;;;;;;5016375;28;973;-85
2022/11/28 01:31:05;;;;;;;;;;;6.60;95.30;;;;;;5025310;28;1882;-84
2022/11/28 01:33:33;;;;;;;;;;;6.90;95.70;;;;;;5025905;28;1601;-84
2022/11/28 01:36:01;;;;;;;;;;;6.60;94.60;;;;;;5033751;28;1538;-86
2022/11/28 01:38:29;;;;;;;;;;;6.50;95.50;;;;;;5028687;28;1686;-85
2022/11/28 01:41:02;;;;;;;;;;;6.50;95.30;;;;;;5028113;28;1627;-89
2022/11/28 01:43:30;;;;;;;;;;;6.50;95.00;;;;;;5014879;28;1274;-90
2022/11/28 01:45:58;;;;;;;;;;;6.50;95.30;;;;;;5024538;28;1355;-88
2022/11/28 01:48:27;;;;;;;;;;;6.50;95.30;;;;;;5022071;28;1694;-91
2022/11/28 01:50:56;;;;;;;;;;;6.50;95.10;;;;;;5018101;28;1972;-87
2022/11/28 01:53:26;;;;;;;;;;;6.50;95.50;;;;;;5031892;28;1545;-88
2022/11/28 01:55:56;;;;;;;;;;;6.40;95.50;;;;;;5021613;28;1545;-90
2022/11/28 01:58:25;;;;;;;;;;;6.30;95.80;;;;;;5012136;28;1529;-90
2022/11/28 02:00:53;;;;;;;;;;;6.30;95.80;;;;;;5006869;28;1537;-88
2022/11/28 02:03:22;;;;;;;;;;;6.40;95.60;;;;;;5009355;28;1068;-87
2022/11/28 02:05:51;;;;;;;;;;;6.50;95.90;;;;;;5012895;28;1652;-87
2022/11/28 02:08:19;;;;;;;;;;;6.40;95.80;;;;;;5017021;28;1089;-86
2022/11/28 02:10:57;;;;;;;;;;;6.20;95.60;;;;;;5020178;28;1993;-89
2022/11/28 02:19:05;;;;;;;;;;;6.20;96.40;;;;;;4980702;28;1609;-90
2022/11/28 02:21:41;;;;;;;;;;;6.10;96.90;;;;;;4983260;28;990;-90
2022/11/28 02:24:25;;;;;;;;;;;6.20;97.00;;;;;;4983687;28;1644;-90
2022/11/28 02:27:00;;;;;;;;;;;6.30;97.00;;;;;;4984985;28;1651;-88
2022/11/28 02:29:35;;;;;;;;;;;6.20;96.90;;;;;;4966215;28;1364;-88
2022/11/28 02:32:21;;;;;;;;;;;6.10;97.30;;;;;;4965762;29;1997;-89
2022/11/28 02:34:54;;;;;;;;;;;6.10;97.50;;;;;;4984218;28;1579;-88
2022/11/28 02:37:25;;;;;;;;;;;6.40;97.40;;;;;;4968096;29;1757;-90
2022/11/28 02:39:56;;;;;;;;;;;6.10;97.20;;;;;;4979101;28;1526;-91
2022/11/28 02:42:28;;;;;;;;;;;6.10;97.50;;;;;;4985366;28;1598;-88
2022/11/28 02:45:00;;;;;;;;;;;6.10;97.40;;;;;;4966315;29;1554;-88
2022/11/28 02:47:31;;;;;;;;;;;6.10;97.00;;;;;;4968210;28;1760;-90
2022/11/28 02:50:03;;;;;;;;;;;6.10;97.40;;;;;;4984787;28;1395;-90
2022/11/28 02:52:35;;;;;;;;;;;6.00;96.90;;;;;;4985683;28;1906;-90
2022/11/28 02:55:03;;;;;;;;;;;6.00;96.20;;;;;;4985599;28;990;-89
2022/11/28 02:57:34;;;;;;;;;;;6.40;96.60;;;;;;4985567;28;1190;-89
2022/11/28 03:00:03;;;;;;;;;;;6.30;96.30;;;;;;4984354;28;995;-90
2022/11/28 03:02:31;;;;;;;;;;;6.10;95.90;;;;;;4985057;28;1653;-89
2022/11/28 03:05:03;;;;;;;;;;;6.10;96.00;;;;;;4984008;28;1579;-88
2022/11/28 03:07:40;;;;;;;;;;;6.00;96.10;;;;;;4984316;28;993;-88
2022/11/28 03:10:13;;;;;;;;;;;6.30;95.70;;;;;;4984431;28;1743;-89
2022/11/28 03:12:46;;;;;;;;;;;6.30;95.80;;;;;;4984931;28;1914;-89
2022/11/28 03:15:17;;;;;;;;;;;6.40;95.20;;;;;;4985005;28;1639;-88
2022/11/28 03:17:48;;;;;;;;;;;6.30;95.50;;;;;;4985787;28;1432;-90
2022/11/28 03:20:21;;;;;;;;;;;6.30;95.10;;;;;;4985115;28;1569;-88
2022/11/28 03:22:58;;;;;;;;;;;6.30;95.50;;;;;;4984879;28;1018;-88
2022/11/28 03:25:28;;;;;;;;;;;6.20;95.40;;;;;;4984460;28;1439;-88
2022/11/28 03:27:58;;;;;;;;;;;6.20;95.40;;;;;;4985159;28;1325;-89
2022/11/28 03:30:29;;;;;;;;;;;6.20;95.20;;;;;;4985710;28;954;-90
2022/11/28 03:32:58;;;;;;;;;;;6.50;95.30;;;;;;4984707;28;1971;-89
2022/11/28 03:35:30;;;;;;;;;;;6.50;95.10;;;;;;4984432;28;1592;-90
2022/11/28 03:38:00;;;;;;;;;;;6.30;94.80;;;;;;4998468;28;1580;-89
2022/11/28 03:40:30;;;;;;;;;;;6.50;95.00;;;;;;4988811;28;1069;-89
2022/11/28 03:43:01;;;;;;;;;;;6.30;94.50;;;;;;4983037;28;1482;-91
2022/11/28 03:45:30;;;;;;;;;;;6.40;94.50;;;;;;4984074;28;1022;-92
2022/11/28 03:48:00;;;;;;;;;;;6.40;94.00;;;;;;4985076;28;1304;-90
2022/11/28 03:50:33;;;;;;;;;;;6.40;94.10;;;;;;4984239;28;1744;-88
2022/11/28 03:53:03;;;;;;;;;;;6.30;94.30;;;;;;4984445;28;1965;-90
2022/11/28 03:55:35;;;;;;;;;;;6.30;94.20;;;;;;4983777;28;1699;-91
2022/11/28 03:58:05;;;;;;;;;;;6.40;94.30;;;;;;4983460;28;1570;-89
2022/11/28 04:00:36;;;;;;;;;;;6.40;94.10;;;;;;4983933;28;1042;-88
2022/11/28 04:03:09;;;;;;;;;;;6.40;94.00;;;;;;4984870;28;1520;-89
2022/11/28 04:05:43;;;;;;;;;;;6.30;94.10;;;;;;4984688;28;989;-89
2022/11/28 04:08:13;;;;;;;;;;;6.20;94.20;;;;;;4985459;28;1537;-91
2022/11/28 04:10:43;;;;;;;;;;;6.30;94.20;;;;;;4985163;28;1576;-92
2022/11/28 04:13:15;;;;;;;;;;;6.20;94.20;;;;;;4991112;28;1977;-89
2022/11/28 04:15:45;;;;;;;;;;;6.50;94.60;;;;;;4992514;28;1105;-90
2022/11/28 04:18:19;;;;;;;;;;;6.30;94.40;;;;;;4993269;28;1234;-90
2022/11/28 04:20:50;;;;;;;;;;;6.20;94.60;;;;;;4992722;28;990;-90
2022/11/28 04:23:20;;;;;;;;;;;6.10;94.80;;;;;;4996415;28;1580;-90
2022/11/28 04:25:50;;;;;;;;;;;6.20;94.60;;;;;;4992548;28;1072;-89
2022/11/28 04:28:20;;;;;;;;;;;6.00;94.60;;;;;;4984182;28;1642;-87
2022/11/28 04:30:50;;;;;;;;;;;6.00;94.70;;;;;;4988029;28;1681;-87
2022/11/28 04:33:19;;;;;;;;;;;6.10;95.20;;;;;;4988154;28;1883;-91
2022/11/28 04:35:50;;;;;;;;;;;6.10;95.20;;;;;;4991869;28;1703;-90
2022/11/28 04:38:20;;;;;;;;;;;6.10;95.30;;;;;;4991243;28;1574;-89
2022/11/28 04:40:51;;;;;;;;;;;6.10;95.60;;;;;;4995761;28;1041;-87
2022/11/28 04:43:21;;;;;;;;;;;6.30;95.50;;;;;;5000484;28;1566;-91
2022/11/28 04:45:50;;;;;;;;;;;6.00;95.60;;;;;;4991573;28;1704;-91
2022/11/28 04:48:19;;;;;;;;;;;6.10;95.80;;;;;;4981913;28;1542;-89
2022/11/28 04:50:49;;;;;;;;;;;6.10;96.10;;;;;;4983724;28;1002;-89
2022/11/28 04:53:21;;;;;;;;;;;6.10;96.00;;;;;;4984470;28;1972;-89
2022/11/28 04:55:52;;;;;;;;;;;6.10;96.00;;;;;;4984207;28;1576;-89
2022/11/28 04:58:22;;;;;;;;;;;6.10;95.80;;;;;;4964554;28;1415;-89
2022/11/28 05:00:52;;;;;;;;;;;6.10;95.80;;;;;;4967360;29;955;-89
2022/11/28 05:03:20;;;;;;;;;;;6.10;95.10;;;;;;4964814;29;1634;-89
2022/11/28 05:05:50;;;;;;;;;;;6.10;95.20;;;;;;4962829;29;972;-88
2022/11/28 05:08:18;;;;;;;;;;;6.10;94.70;;;;;;4962454;28;1561;-89
2022/11/28 05:10:48;;;;;;;;;;;5.90;95.30;;;;;;4961990;29;1522;-91
2022/11/28 05:13:16;;;;;;;;;;;5.90;94.50;;;;;;4962706;29;1950;-90
2022/11/28 05:15:44;;;;;;;;;;;6.00;94.70;;;;;;4964188;29;1006;-88
2022/11/28 05:18:12;;;;;;;;;;;6.00;94.60;;;;;;4979001;28;1521;-91
2022/11/28 05:20:39;;;;;;;;;;;6.10;94.70;;;;;;4982710;28;1080;-90
2022/11/28 05:23:07;;;;;;;;;;;6.10;94.30;;;;;;4982490;28;997;-90
2022/11/28 05:25:37;;;;;;;;;;;6.10;94.80;;;;;;4981689;28;1719;-89
2022/11/28 05:28:06;;;;;;;;;;;6.10;95.00;;;;;;4982011;28;1408;-87
2022/11/28 05:30:33;;;;;;;;;;;6.10;95.00;;;;;;4981364;28;1577;-88
2022/11/28 05:33:01;;;;;;;;;;;6.20;94.80;;;;;;4981500;28;1968;-90
2022/11/28 05:35:29;;;;;;;;;;;6.10;94.60;;;;;;4981961;28;943;-90
2022/11/28 05:37:57;;;;;;;;;;;6.20;94.50;;;;;;4981570;28;1513;-89
2022/11/28 05:40:24;;;;;;;;;;;6.20;95.00;;;;;;4983020;28;1576;-88
2022/11/28 05:42:53;;;;;;;;;;;6.00;94.30;;;;;;4986873;28;1567;-87
2022/11/28 05:45:22;;;;;;;;;;;6.10;94.60;;;;;;4999438;28;1030;-90
2022/11/28 05:47:50;;;;;;;;;;;6.10;95.50;;;;;;4984392;28;1584;-90
2022/11/28 05:50:18;;;;;;;;;;;6.40;94.60;;;;;;4981331;28;1677;-90
2022/11/28 05:52:46;;;;;;;;;;;6.40;94.80;;;;;;4981970;28;1899;-89
2022/11/28 05:55:14;;;;;;;;;;;6.00;94.60;;;;;;4982218;28;1018;-89
2022/11/28 05:57:41;;;;;;;;;;;6.00;95.00;;;;;;4981814;28;1715;-89
2022/11/28 06:00:09;;;;;;;;;;;6.00;94.80;;;;;;4981684;28;1664;-90
2022/11/28 06:02:38;;;;;;;;;;;6.00;94.70;;;;;;4981603;28;1580;-89
2022/11/28 06:05:06;;;;;;;;;;;6.00;94.60;;;;;;4981495;28;994;-89
2022/11/28 06:07:54;;;;;;;;;;;6.00;94.00;;;;;;4981083;28;1539;-88
2022/11/28 06:10:22;;;;;;;;;;;5.80;94.40;;;;;;4980964;28;1009;-89
2022/11/28 06:12:50;;;;;;;;;;;6.00;94.60;;;;;;4980654;28;1887;-88
2022/11/28 06:15:18;;;;;;;;;;;5.90;94.00;;;;;;4981055;28;1005;-90
2022/11/28 06:17:49;;;;;;;;;;;5.90;93.60;;;;;;4979970;28;1708;-89
2022/11/28 06:20:18;;;;;;;;;;;5.90;94.30;;;;;;4980298;28;1049;-88
2022/11/28 06:22:46;;;;;;;;;;;6.10;94.50;;;;;;4981406;28;983;-89
2022/11/28 06:25:14;;;;;;;;;;;6.00;94.40;;;;;;4981074;28;1575;-90
2022/11/28 06:27:42;;;;;;;;;;;6.00;94.10;;;;;;4980303;28;1304;-90
2022/11/28 06:30:10;;;;;;;;;;;6.10;93.90;;;;;;4980354;28;1592;-90
2022/11/28 06:32:38;;;;;;;;;;;6.10;94.20;;;;;;4980729;28;1724;-90
2022/11/28 06:35:07;;;;;;;;;;;6.10;94.10;;;;;;4981515;28;991;-88
2022/11/28 06:37:35;;;;;;;;;;;6.00;94.30;;;;;;4980490;28;1600;-87
2022/11/28 06:40:03;;;;;;;;;;;6.00;93.60;;;;;;4980310;28;1409;-89
2022/11/28 06:42:31;;;;;;;;;;;6.00;93.90;;;;;;4983036;28;1010;-88
2022/11/28 06:44:58;;;;;;;;;;;6.00;93.50;;;;;;4983952;28;1018;-87
2022/11/28 06:47:26;;;;;;;;;;;5.80;93.70;;;;;;4993448;28;1425;-90
2022/11/28 06:49:56;;;;;;;;;;;6.00;93.90;;;;;;4996029;28;1501;-90
2022/11/28 06:52:25;;;;;;;;;;;6.10;93.90;;;;;;4982922;28;1026;-90
2022/11/28 06:54:53;;;;;;;;;;;6.00;93.90;;;;;;4983158;28;1987;-90
2022/11/28 06:57:21;;;;;;;;;;;6.20;93.40;;;;;;4983082;28;1545;-90
2022/11/28 06:59:49;;;;;;;;;;;6.10;93.60;;;;;;4981791;28;1257;-92
2022/11/28 07:02:17;;;;;;;;;;;6.10;93.80;;;;;;4982579;28;1697;-89
2022/11/28 07:04:45;;;;;;;;;;;6.10;93.50;;;;;;4984912;28;1602;-90
2022/11/28 07:07:13;;;;;;;;;;;6.10;94.00;;;;;;4986132;28;1767;-88
2022/11/28 07:09:50;;;;;;;;;;;6.20;93.70;;;;;;4988393;28;1531;-89
2022/11/28 07:12:18;;;;;;;;;;;6.10;93.50;;;;;;4987247;28;1041;-92
2022/11/28 07:14:46;;;;;;;;;;;6.10;94.40;;;;;;4986198;28;1910;-91
2022/11/28 07:17:16;;;;;;;;;;;5.90;93.10;;;;;;4988564;28;1533;-89
2022/11/28 07:19:44;;;;;;;;;;;6.00;93.50;;;;;;4988996;28;1880;-89
2022/11/28 07:22:18;;;;;;;;;;;6.10;93.20;;;;;;4993921;28;1097;-90
2022/11/28 07:24:48;;;;;;;;;;;6.10;93.60;;;;;;4986778;28;978;-89
2022/11/28 07:27:15;;;;;;;;;;;6.00;93.20;;;;;;4987173;28;1089;-89
2022/11/28 07:29:43;;;;;;;;;;;6.10;92.80;;;;;;4986583;28;1746;-88
2022/11/28 07:32:12;;;;;;;;;;;6.30;92.80;;;;;;4985839;28;1033;-91
2022/11/28 07:34:41;;;;;;;;;;;6.10;93.00;;;;;;4987073;28;1891;-90
2022/11/28 07:37:14;;;;;;;;;;;6.10;93.00;;;;;;4985958;28;1653;-90
2022/11/28 07:39:43;;;;;;;;;;;6.40;93.00;;;;;;4985979;28;1579;-90
2022/11/28 07:42:12;;;;;;;;;;;6.00;92.50;;;;;;4985463;28;1569;-88
2022/11/28 07:44:40;;;;;;;;;;;6.10;93.10;;;;;;4986159;28;1510;-90
2022/11/28 07:47:08;;;;;;;;;;;6.20;92.80;;;;;;4984298;28;1566;-89
2022/11/28 07:49:36;;;;;;;;;;;6.20;92.40;;;;;;4983949;28;1699;-90
2022/11/28 07:52:03;;;;;;;;;;;6.20;93.00;;;;;;5000261;28;1700;-89
2022/11/28 07:54:31;;;;;;;;;;;6.30;92.50;;;;;;4989850;28;1894;-89
2022/11/28 07:56:59;;;;;;;;;;;6.30;92.80;;;;;;4983431;28;1020;-90
2022/11/28 07:59:43;;;;;;;;;;;6.30;93.10;;;;;;4983887;28;1492;-89
2022/11/28 08:02:12;;;;;;;;;;;6.30;93.20;;;;;;4984282;28;1518;-91
2022/11/28 08:04:39;;;;;;;;;;;6.40;93.00;;;;;;4984150;28;1550;-90
2022/11/28 08:07:16;;;;;;;;;;;6.40;93.00;;;;;;4984212;28;1033;-89
2022/11/28 08:09:46;;;;;;;;;;;6.30;92.60;;;;;;4983727;28;1674;-90
2022/11/28 08:12:14;;;;;;;;;;;6.20;92.40;;;;;;4982894;28;1612;-87
2022/11/28 08:14:41;;;;;;;;;;;6.30;93.10;;;;;;4984163;28;1887;-89
2022/11/28 08:17:11;;;;;;;;;;;6.40;92.80;;;;;;4983930;28;994;-89
2022/11/28 08:19:39;;;;;;;;;;;6.60;93.20;;;;;;4984540;28;1529;-88
2022/11/28 08:22:06;;;;;;;;;;;6.40;93.10;;;;;;4985751;28;974;-89
2022/11/28 08:24:34;;;;;;;;;;;6.50;92.50;;;;;;4986004;28;1521;-93
2022/11/28 08:27:02;;;;;;;;;;;6.60;92.80;;;;;;4982487;28;1545;-90
2022/11/28 08:29:30;;;;;;;;;;;6.40;92.40;;;;;;4983861;28;1574;-92
2022/11/28 08:31:58;;;;;;;;;;;6.60;92.60;;;;;;4984456;28;1547;-90
2022/11/28 08:34:27;;;;;;;;;;;6.40;92.40;;;;;;4986106;28;1902;-88
2022/11/28 08:36:55;;;;;;;;;;;6.40;93.00;;;;;;4984778;28;1611;-89
2022/11/28 08:39:23;;;;;;;;;;;6.50;92.50;;;;;;4984418;28;1553;-91
2022/11/28 08:41:52;;;;;;;;;;;6.50;91.80;;;;;;4983696;28;1580;-88
2022/11/28 08:44:20;;;;;;;;;;;6.30;92.60;;;;;;4983618;28;1566;-90
2022/11/28 08:46:48;;;;;;;;;;;6.30;92.70;;;;;;4984544;28;1662;-89
2022/11/28 08:49:15;;;;;;;;;;;6.40;93.20;;;;;;4983964;28;1727;-90
2022/11/28 08:51:45;;;;;;;;;;;6.30;92.70;;;;;;4984375;28;965;-89
2022/11/28 08:54:12;;;;;;;;;;;6.60;92.70;;;;;;4986386;28;1964;-89
2022/11/28 08:56:40;;;;;;;;;;;6.40;92.20;;;;;;5000083;28;1434;-90
2022/11/28 08:59:09;;;;;;;;;;;6.50;92.50;;;;;;4984669;28;1715;-90
2022/11/28 09:01:38;;;;;;;;;;;6.50;92.50;;;;;;4986151;28;1605;-92
2022/11/28 09:04:06;;;;;;;;;;;6.70;92.10;;;;;;4984616;28;1600;-89
2022/11/28 09:06:33;;;;;;;;;;;6.50;92.20;;;;;;4984888;28;1942;-89
2022/11/28 09:09:03;;;;;;;;;;;6.70;92.40;;;;;;4982672;28;1876;-89
2022/11/28 09:11:31;;;;;;;;;;;6.90;94.80;;;;;;4977242;28;950;-89
2022/11/28 09:13:59;;;;;;;;;;;6.60;91.50;;;;;;4982264;28;1761;-89
2022/11/28 09:16:27;;;;;;;;;;;7.00;92.70;;;;;;4980572;28;1914;-90
2022/11/28 09:18:56;;;;;;;;;;;6.70;91.80;;;;;;4983442;28;1345;-90
2022/11/28 09:21:24;;;;;;;;;;;6.60;91.30;;;;;;4984382;28;1455;-89
2022/11/28 09:23:54;;;;;;;;;;;6.80;91.80;;;;;;4984385;28;1651;-91
2022/11/28 09:26:24;;;;;;;;;;;6.80;91.60;;;;;;4983736;28;1578;-89
2022/11/28 09:28:54;;;;;;;;;;;6.80;91.80;;;;;;4982844;28;1566;-91
2022/11/28 09:31:21;;;;;;;;;;;6.60;91.60;;;;;;4983966;28;1565;-90
2022/11/28 09:33:51;;;;;;;;;;;6.70;91.30;;;;;;4982917;28;1439;-89
2022/11/28 09:36:20;;;;;;;;;;;6.80;91.80;;;;;;4988064;28;1879;-90
2022/11/28 09:38:48;;;;;;;;;;;6.60;91.10;;;;;;4986071;28;1699;-89
2022/11/28 09:41:26;;;;;;;;;;;6.40;90.70;;;;;;4984159;28;1572;-88
2022/11/28 09:43:59;;;;;;;;;;;6.50;91.90;;;;;;4983285;28;1552;-89
2022/11/28 09:46:29;;;;;;;;;;;6.80;91.50;;;;;;4985607;28;1597;-89
2022/11/28 09:49:00;;;;;;;;;;;6.80;91.60;;;;;;4985451;28;1675;-88
2022/11/28 09:51:29;;;;;;;;;;;6.90;91.30;;;;;;4986512;28;1687;-89
2022/11/28 09:54:00;;;;;;;;;;;6.80;91.10;;;;;;4985607;28;1053;-88
2022/11/28 09:56:28;;;;;;;;;;;6.80;91.40;;;;;;4985006;28;1914;-87
2022/11/28 09:59:01;;;;;;;;;;;7.10;90.90;;;;;;4996207;28;1709;-91
2022/11/28 10:01:33;;;;;;;;;;;6.80;91.00;;;;;;4992033;28;1623;-92
2022/11/28 10:04:02;;;;;;;;;;;7.00;91.70;;;;;;4986781;28;1447;-91
2022/11/28 10:06:34;;;;;;;;;;;6.80;90.80;;;;;;4988025;28;1626;-90
2022/11/28 10:09:13;;;;;;;;;;;6.90;91.00;;;;;;4986329;28;1494;-92
2022/11/28 10:11:49;;;;;;;;;;;6.80;91.10;;;;;;4987961;28;1548;-91
2022/11/28 10:14:27;;;;;;;;;;;6.90;91.30;;;;;;4986869;28;1711;-91
2022/11/28 10:16:59;;;;;;;;;;;6.70;91.00;;;;;;4990300;28;1974;-90
2022/11/28 10:19:32;;;;;;;;;;;6.50;90.70;;;;;;4993982;28;1542;-90
2022/11/28 10:22:24;;;;;;;;;;;6.80;91.00;;;;;;4994414;28;1539;-92
2022/11/28 10:24:54;;;;;;;;;;;7.00;90.80;;;;;;4997520;28;1710;-89
2022/11/28 10:27:24;;;;;;;;;;;6.80;90.70;;;;;;5002561;28;1689;-92
2022/11/28 10:29:58;;;;;;;;;;;7.00;90.30;;;;;;4996937;28;1530;-92
2022/11/28 10:32:31;;;;;;;;;;;6.80;90.90;;;;;;4996257;28;1585;-91
2022/11/28 10:35:01;;;;;;;;;;;7.20;90.70;;;;;;4993126;28;1887;-88
2022/11/28 10:37:30;;;;;;;;;;;6.80;90.70;;;;;;4995097;28;1567;-89
2022/11/28 10:40:03;;;;;;;;;;;6.80;90.50;;;;;;4998029;28;1684;-90
2022/11/28 10:45:22;;;;;;;;;;;6.80;90.20;;;;;;4934619;29;1534;-91
2022/11/28 10:48:06;;;;;;;;;;;6.80;90.50;;;;;;4938988;28;1674;-90
2022/11/28 10:51:00;;;;;;;;;;;6.80;90.80;;;;;;4993822;28;1759;-91
2022/11/28 10:53:37;;;;;;;;;;;6.70;90.60;;;;;;4991142;28;1616;-88
2022/11/28 10:56:10;;;;;;;;;;;6.80;90.90;;;;;;4989855;28;1961;-88
2022/11/28 10:58:42;;;;;;;;;;;6.50;91.20;;;;;;4991124;28;1633;-89
2022/11/28 11:01:11;;;;;;;;;;;6.60;90.80;;;;;;4995800;28;1717;-87
2022/11/28 11:03:42;;;;;;;;;;;6.80;91.10;;;;;;5001673;28;1564;-87
2022/11/28 11:06:10;;;;;;;;;;;6.60;90.30;;;;;;4991533;28;1573;-86
2022/11/28 11:08:38;;;;;;;;;;;6.80;89.70;;;;;;4991865;28;1629;-87
2022/11/28 11:11:15;;;;;;;;;;;6.70;90.70;;;;;;4987361;28;1599;-90
2022/11/28 11:13:56;;;;;;;;;;;6.60;90.60;;;;;;4987992;28;1549;-89
2022/11/28 11:16:25;;;;;;;;;;;6.70;90.90;;;;;;4987352;28;1910;-87
2022/11/28 11:18:54;;;;;;;;;;;6.80;90.70;;;;;;4986594;28;1352;-90
2022/11/28 11:21:23;;;;;;;;;;;7.00;90.80;;;;;;4987441;28;1619;-90
2022/11/28 11:24:09;;;;;;;;;;;6.80;90.60;;;;;;4986725;28;1751;-88
2022/11/28 11:26:38;;;;;;;;;;;6.70;90.50;;;;;;4986010;28;1061;-88
2022/11/28 11:29:06;;;;;;;;;;;6.80;91.30;;;;;;4986139;28;1572;-89
2022/11/28 11:31:41;;;;;;;;;;;7.10;90.90;;;;;;4985488;28;1438;-87
2022/11/28 11:34:14;;;;;;;;;;;6.90;91.00;;;;;;4985715;28;1572;-89
2022/11/28 11:36:42;;;;;;;;;;;7.10;91.00;;;;;;4984632;28;1991;-88
2022/11/28 11:39:20;;;;;;;;;;;6.60;90.60;;;;;;4984237;28;1643;-89
2022/11/28 11:41:49;;;;;;;;;;;6.90;91.70;;;;;;4985048;28;1435;-88
2022/11/28 11:44:25;;;;;;;;;;;6.80;91.80;;;;;;4984753;28;1545;-89
2022/11/28 11:46:55;;;;;;;;;;;6.80;92.60;;;;;;4984004;28;1588;-89
2022/11/28 11:49:28;;;;;;;;;;;6.80;92.90;;;;;;4985109;28;1673;-88
2022/11/28 11:51:56;;;;;;;;;;;6.70;93.20;;;;;;4986055;28;1399;-88
2022/11/28 11:54:24;;;;;;;;;;;6.80;93.60;;;;;;4986300;28;1723;-87
2022/11/28 11:56:52;;;;;;;;;;;6.70;93.60;;;;;;4984580;28;1891;-87
2022/11/28 11:59:41;;;;;;;;;;;6.70;93.30;;;;;;4984337;28;1586;-85
2022/11/28 12:02:26;;;;;;;;;;;6.50;94.20;;;;;;4979057;28;1715;-88
2022/11/28 12:05:20;;;;;;;;;;;6.50;94.70;;;;;;4978282;28;1439;-88
2022/11/28 12:07:54;;;;;;;;;;;6.60;94.30;;;;;;5000062;28;1429;-89
2022/11/28 12:10:24;;;;;;;;;;;6.70;94.90;;;;;;4986851;28;1729;-89
2022/11/28 12:12:52;;;;;;;;;;;6.70;94.60;;;;;;4984323;28;1547;-88
2022/11/28 12:15:24;;;;;;;;;;;6.70;94.70;;;;;;4965663;29;1538;-90
2022/11/28 12:18:06;;;;;;;;;;;6.50;94.50;;;;;;4983636;28;1890;-88
2022/11/28 12:20:42;;;;;;;;;;;6.60;95.20;;;;;;4984980;28;1453;-90
2022/11/28 12:23:16;;;;;;;;;;;6.70;95.30;;;;;;4984505;28;1718;-88
2022/11/28 12:25:48;;;;;;;;;;;6.60;95.40;;;;;;4984474;28;994;-90
2022/11/28 12:28:20;;;;;;;;;;;6.40;95.70;;;;;;4981382;28;1591;-90
2022/11/28 12:30:54;;;;;;;;;;;6.50;96.00;;;;;;4983204;28;1614;-89
2022/11/28 12:33:32;;;;;;;;;;;6.60;95.60;;;;;;4982977;28;1109;-88
2022/11/28 12:36:07;;;;;;;;;;;6.60;95.90;;;;;;4976042;28;1997;-87
2022/11/28 12:38:42;;;;;;;;;;;6.60;95.80;;;;;;4982892;28;1447;-88
2022/11/28 12:41:17;;;;;;;;;;;6.50;95.70;;;;;;4982769;28;1423;-87
2022/11/28 12:43:50;;;;;;;;;;;6.40;95.60;;;;;;4982057;28;1259;-87
2022/11/28 12:46:22;;;;;;;;;;;6.30;95.80;;;;;;4969600;28;1733;-88
2022/11/28 12:49:04;;;;;;;;;;;6.30;95.80;;;;;;4978725;28;1777;-88
2022/11/28 12:51:38;;;;;;;;;;;6.20;96.70;;;;;;4970420;28;1412;-87
2022/11/28 12:54:15;;;;;;;;;;;6.20;96.30;;;;;;4984527;28;1510;-88
2022/11/28 12:56:47;;;;;;;;;;;6.40;96.70;;;;;;4981766;28;1993;-88
2022/11/28 12:59:20;;;;;;;;;;;6.50;96.80;;;;;;4981382;28;1729;-89
2022/11/28 13:01:54;;;;;;;;;;;6.20;96.60;;;;;;4980485;28;1370;-90
2022/11/28 13:04:43;;;;;;;;;;;6.50;96.90;;;;;;4974696;28;851;-89
2022/11/28 13:07:15;;;;;;;;;;;6.30;97.00;;;;;;4981803;28;986;-88
2022/11/28 13:09:47;;;;;;;;;;;6.50;97.10;;;;;;4985117;28;1565;-87
2022/11/28 13:12:21;;;;;;;;;;;6.30;97.80;;;;;;4998072;28;1269;-86
2022/11/28 13:14:52;;;;;;;;;;;6.30;97.60;;;;;;4985033;28;1607;-88
2022/11/28 13:17:24;;;;;;;;;;;6.40;97.80;;;;;;4981610;28;1898;-88
2022/11/28 13:19:56;;;;;;;;;;;6.50;98.10;;;;;;4981234;28;1445;-88
2022/11/28 13:22:27;;;;;;;;;;;6.40;97.60;;;;;;4981028;28;1548;-87
2022/11/28 13:25:00;;;;;;;;;;;6.40;98.00;;;;;;4981179;28;1616;-89
2022/11/28 13:27:32;;;;;;;;;;;6.50;98.10;;;;;;4980545;28;1828;-88
2022/11/28 13:30:05;;;;;;;;;;;6.40;98.10;;;;;;4980422;28;1344;-88
2022/11/28 13:32:35;;;;;;;;;;;6.30;98.20;;;;;;4980576;28;999;-88
2022/11/28 13:35:05;;;;;;;;;;;6.40;98.00;;;;;;4980552;28;959;-89
2022/11/28 13:37:37;;;;;;;;;;;6.50;98.10;;;;;;4981373;28;1990;-89
2022/11/28 13:40:27;;;;;;;;;;;6.40;97.70;;;;;;4979185;28;1239;-89
2022/11/28 13:43:00;;;;;;;;;;;6.40;97.70;;;;;;4981796;28;1713;-87
2022/11/28 13:45:34;;;;;;;;;;;6.10;97.80;;;;;;4978392;28;1707;-88
2022/11/28 13:48:30;;;;;;;;;;;6.20;97.90;;;;;;4982292;28;1726;-89
2022/11/28 13:51:21;;;;;;;;;;;6.10;98.00;;;;;;4984212;28;1702;-87
2022/11/28 13:54:13;;;;;;;;;;;6.00;98.20;;;;;;4986865;28;1548;-87
2022/11/28 13:56:42;;;;;;;;;;;6.10;98.40;;;;;;4988053;28;1922;-86
2022/11/28 13:59:16;;;;;;;;;;;6.10;97.70;;;;;;4987704;28;1564;-86
2022/11/28 14:01:45;;;;;;;;;;;5.90;97.90;;;;;;4991868;28;1779;-88
2022/11/28 14:04:14;;;;;;;;;;;6.00;98.30;;;;;;4985784;28;1603;-87
2022/11/28 14:06:46;;;;;;;;;;;6.00;98.00;;;;;;4983922;28;1249;-91
2022/11/28 14:09:25;;;;;;;;;;;5.90;98.00;;;;;;4987328;28;1507;-87
2022/11/28 14:12:03;;;;;;;;;;;6.00;98.40;;;;;;4986202;28;975;-86
2022/11/28 14:14:41;;;;;;;;;;;6.00;98.10;;;;;;4993959;28;1738;-89
2022/11/28 14:17:18;;;;;;;;;;;6.00;98.40;;;;;;5001987;28;1891;-88
2022/11/28 14:19:54;;;;;;;;;;;6.00;98.60;;;;;;4985673;28;1931;-87
2022/11/28 14:22:30;;;;;;;;;;;6.10;98.30;;;;;;4982141;28;1698;-88
2022/11/28 14:25:01;;;;;;;;;;;5.90;98.50;;;;;;4974827;28;1743;-87
2022/11/28 14:27:31;;;;;;;;;;;6.00;98.60;;;;;;4981528;28;1569;-86
2022/11/28 14:29:59;;;;;;;;;;;5.80;98.40;;;;;;4981269;28;1163;-88
2022/11/28 14:32:30;;;;;;;;;;;5.90;98.50;;;;;;4981109;28;1191;-87
2022/11/28 14:34:58;;;;;;;;;;;5.80;98.70;;;;;;4975746;28;1603;-89
2022/11/28 14:37:56;;;;;;;;;;;6.00;98.40;;;;;;4984240;28;1898;-88
2022/11/28 14:40:43;;;;;;;;;;;5.90;99.10;;;;;;4983064;28;1069;-87
2022/11/28 14:43:28;;;;;;;;;;;5.90;98.70;;;;;;4983741;28;935;-86
2022/11/28 14:46:20;;;;;;;;;;;6.00;99.00;;;;;;4979898;28;999;-87
2022/11/28 14:49:06;;;;;;;;;;;5.80;98.60;;;;;;4950974;28;1659;-86
2022/11/28 14:51:53;;;;;;;;;;;5.80;99.00;;;;;;4986210;28;1690;-87
2022/11/28 14:54:42;;;;;;;;;;;5.70;99.10;;;;;;4985173;28;1540;-87
2022/11/28 14:57:12;;;;;;;;;;;5.70;99.20;;;;;;4972249;28;1888;-85
2022/11/28 14:59:42;;;;;;;;;;;5.80;99.80;;;;;;4978231;28;1517;-86
2022/11/28 15:02:20;;;;;;;;;;;5.70;99.20;;;;;;4974778;28;1156;-86
2022/11/28 15:04:53;;;;;;;;;;;5.90;99.60;;;;;;4983592;28;978;-84
2022/11/28 15:07:24;;;;;;;;;;;5.60;99.50;;;;;;4984014;28;1050;-87
2022/11/28 15:09:57;;;;;;;;;;;5.50;99.40;;;;;;4981015;28;1569;-87
2022/11/28 15:12:33;;;;;;;;;;;5.50;99.80;;;;;;4981553;28;1542;-85
2022/11/28 15:15:02;;;;;;;;;;;5.60;99.50;;;;;;4982930;28;915;-87
2022/11/28 15:17:32;;;;;;;;;;;5.50;99.70;;;;;;4984208;28;1906;-88